Time;durP1;ratioP1;P1;durP2;ratioP2;P2;SDS_P1;SDS_P2;PMS_P1;PMS_P2;Temp;Humidity;BMP_temperature;BMP_pressure;BME280_temperature;BME280_humidity;BME280_pressure;Samples;Min_cycle;Max_cycle;Signal;HPM_P1;HPM_P2
2022/01/28 00:02:45;;;;;;;;;;;5.10;99.60;;;;;;5061191;28;19951;-69
2022/01/28 00:04:55;;;;;;;;;;;5.10;99.50;;;;;;5062354;28;19948;-69
2022/01/28 00:07:21;;;;;;;;;;;5.10;99.60;;;;;;5061431;28;20530;-69
2022/01/28 00:09:46;;;;;;;;;;;5.10;99.60;;;;;;5069959;28;20086;-69
2022/01/28 00:12:13;;;;;;;;;;;5.10;99.60;;;;;;5059449;28;20655;-69
2022/01/28 00:14:53;;;;;;;;;;;5.10;99.50;;;;;;5049298;28;19913;-69
2022/01/28 00:18:33;;;;;;;;;;;5.10;99.60;;;;;;5060546;28;19913;-69
2022/01/28 00:20:57;;;;;;;;;;;5.10;99.70;;;;;;5047675;28;19956;-69
2022/01/28 00:39:12;;;;;;;;;;;5.00;99.50;;;;;;5066421;28;20018;-69
2022/01/28 00:41:37;;;;;;;;;;;5.00;99.50;;;;;;5066188;28;19913;-69
2022/01/28 00:44:03;;;;;;;;;;;5.00;99.60;;;;;;5043795;28;19921;-69
2022/01/28 00:46:28;;;;;;;;;;;5.00;99.60;;;;;;5054523;28;20395;-69
2022/01/28 00:48:54;;;;;;;;;;;5.10;99.60;;;;;;5061689;28;19924;-69
2022/01/28 00:51:19;;;;;;;;;;;5.00;99.60;;;;;;5066898;28;19999;-69
2022/01/28 00:53:44;;;;;;;;;;;5.10;99.60;;;;;;5046040;28;19928;-69
2022/01/28 00:56:10;;;;;;;;;;;5.10;99.70;;;;;;5048610;28;19991;-69
2022/01/28 00:58:35;;;;;;;;;;;5.00;99.60;;;;;;5061903;28;19961;-69
2022/01/28 01:01:01;;;;;;;;;;;5.00;99.60;;;;;;5047808;28;20440;-69
2022/01/28 01:03:26;;;;;;;;;;;5.00;99.60;;;;;;5060905;28;19917;-69
2022/01/28 01:05:52;;;;;;;;;;;5.00;99.60;;;;;;5062148;28;19923;-69
2022/01/28 01:08:17;;;;;;;;;;;5.00;99.60;;;;;;5048453;28;19928;-69
2022/01/28 01:10:43;;;;;;;;;;;5.00;99.60;;;;;;5064485;28;19940;-69
2022/01/28 01:13:09;;;;;;;;;;;5.00;99.60;;;;;;5056297;28;19947;-69
2022/01/28 01:15:39;;;;;;;;;;;5.00;99.60;;;;;;5047383;28;21452;-69
2022/01/28 01:18:33;;;;;;;;;;;5.00;99.70;;;;;;5073749;28;19908;-69
2022/01/28 01:21:03;;;;;;;;;;;5.00;99.70;;;;;;5064175;28;20368;-69
2022/01/28 01:23:32;;;;;;;;;;;5.00;99.70;;;;;;5078375;28;20031;-69
2022/01/28 01:28:31;;;;;;;;;;;5.00;99.70;;;;;;5075131;28;19912;-69
2022/01/28 01:30:58;;;;;;;;;;;5.00;99.60;;;;;;5064608;28;19983;-69
2022/01/28 01:33:25;;;;;;;;;;;5.00;99.70;;;;;;5066132;28;19996;-69
2022/01/28 01:35:50;;;;;;;;;;;5.00;99.60;;;;;;5068718;28;19920;-70
2022/01/28 01:38:16;;;;;;;;;;;5.00;99.70;;;;;;5065443;28;19959;-69
2022/01/28 01:40:54;;;;;;;;;;;5.00;99.70;;;;;;5044744;28;20347;-69
2022/01/28 01:46:07;;;;;;;;;;;5.00;99.70;;;;;;5068862;28;19951;-69
2022/01/28 01:54:02;;;;;;;;;;;4.90;99.80;;;;;;5073059;28;19918;-69
2022/01/28 01:56:28;;;;;;;;;;;4.90;99.80;;;;;;5070966;28;19922;-69
2022/01/28 01:58:53;;;;;;;;;;;4.90;99.70;;;;;;5063215;28;20381;-69
2022/01/28 02:01:19;;;;;;;;;;;4.90;99.70;;;;;;5067196;28;19920;-70
2022/01/28 02:03:44;;;;;;;;;;;4.90;99.80;;;;;;5061812;28;19912;-69
2022/01/28 02:06:10;;;;;;;;;;;4.90;99.80;;;;;;5061200;28;19920;-69
2022/01/28 02:08:36;;;;;;;;;;;4.90;99.80;;;;;;5063082;28;19920;-69
2022/01/28 02:11:01;;;;;;;;;;;4.90;99.80;;;;;;5072971;28;19916;-69
2022/01/28 02:13:28;;;;;;;;;;;4.90;99.70;;;;;;5063449;28;19922;-69
2022/01/28 02:15:55;;;;;;;;;;;4.90;99.80;;;;;;5061511;28;20369;-69
2022/01/28 02:18:21;;;;;;;;;;;4.90;99.80;;;;;;5062890;28;20320;-69
2022/01/28 02:20:49;;;;;;;;;;;4.90;99.80;;;;;;5072905;28;19912;-69
2022/01/28 02:23:15;;;;;;;;;;;4.90;99.70;;;;;;5061664;28;19923;-69
2022/01/28 02:25:42;;;;;;;;;;;4.90;99.70;;;;;;5065192;28;19915;-69
2022/01/28 02:28:10;;;;;;;;;;;4.90;99.70;;;;;;5067876;28;19924;-69
2022/01/28 02:30:36;;;;;;;;;;;4.90;99.70;;;;;;5044504;28;20019;-69
2022/01/28 02:33:10;;;;;;;;;;;4.90;99.70;;;;;;5056378;28;20010;-69
2022/01/28 02:35:36;;;;;;;;;;;4.90;99.70;;;;;;5047816;28;20373;-69
2022/01/28 02:38:01;;;;;;;;;;;4.90;99.70;;;;;;5064924;28;20381;-69
2022/01/28 02:40:27;;;;;;;;;;;4.90;99.60;;;;;;5061528;28;19970;-69
2022/01/28 02:45:42;;;;;;;;;;;4.90;99.60;;;;;;5043723;28;19908;-69
2022/01/28 02:48:16;;;;;;;;;;;4.80;99.60;;;;;;5068859;28;19926;-69
2022/01/28 02:51:06;;;;;;;;;;;4.90;99.60;;;;;;5062639;28;19917;-69
2022/01/28 02:53:36;;;;;;;;;;;4.90;99.60;;;;;;5060980;28;19913;-69
2022/01/28 02:56:11;;;;;;;;;;;4.90;99.60;;;;;;5045306;28;19909;-69
2022/01/28 02:58:36;;;;;;;;;;;4.90;99.50;;;;;;5054496;28;19919;-69
2022/01/28 03:01:02;;;;;;;;;;;4.80;99.50;;;;;;5063103;28;19913;-69
2022/01/28 03:03:27;;;;;;;;;;;4.80;99.50;;;;;;5060033;28;19917;-69
2022/01/28 03:05:53;;;;;;;;;;;4.90;99.50;;;;;;5061894;28;19955;-69
2022/01/28 03:08:22;;;;;;;;;;;4.90;99.50;;;;;;5073221;28;19920;-69
2022/01/28 03:13:58;;;;;;;;;;;4.80;99.40;;;;;;5075840;28;19971;-69
2022/01/28 03:16:21;;;;;;;;;;;4.80;99.40;;;;;;5061722;28;19912;-69
2022/01/28 03:18:57;;;;;;;;;;;4.80;99.40;;;;;;5066628;28;19912;-69
2022/01/28 03:23:49;;;;;;;;;;;4.80;99.60;;;;;;5054347;28;20035;-69
2022/01/28 03:26:15;;;;;;;;;;;4.80;99.60;;;;;;5062120;28;20566;-69
2022/01/28 03:28:41;;;;;;;;;;;4.80;99.50;;;;;;5069462;28;19961;-69
2022/01/28 03:31:06;;;;;;;;;;;4.80;99.60;;;;;;5060920;28;19924;-70
2022/01/28 03:33:32;;;;;;;;;;;4.80;99.50;;;;;;5044526;28;19933;-69
2022/01/28 03:35:57;;;;;;;;;;;4.80;99.60;;;;;;5062506;28;20586;-69
2022/01/28 03:38:23;;;;;;;;;;;4.80;99.50;;;;;;5065796;28;19963;-69
2022/01/28 03:40:51;;;;;;;;;;;4.80;99.50;;;;;;5067699;28;19912;-69
2022/01/28 03:43:16;;;;;;;;;;;4.80;99.50;;;;;;5060627;28;19913;-69
2022/01/28 03:45:42;;;;;;;;;;;4.80;99.50;;;;;;5060862;28;19931;-69
2022/01/28 03:48:07;;;;;;;;;;;4.80;99.50;;;;;;5062026;28;20349;-69
2022/01/28 03:50:34;;;;;;;;;;;4.80;99.50;;;;;;5052003;28;19917;-69
2022/01/28 03:53:04;;;;;;;;;;;4.80;99.50;;;;;;5061647;28;19992;-69
2022/01/28 03:55:30;;;;;;;;;;;4.80;99.50;;;;;;5055051;28;19917;-69
2022/01/28 03:57:56;;;;;;;;;;;4.80;99.50;;;;;;5059942;28;19920;-69
2022/01/28 04:00:26;;;;;;;;;;;4.80;99.50;;;;;;5064928;28;20546;-69
2022/01/28 04:03:02;;;;;;;;;;;4.80;99.50;;;;;;5063070;28;19926;-69
2022/01/28 04:06:17;;;;;;;;;;;4.80;99.50;;;;;;5072810;28;19908;-69
2022/01/28 04:13:50;;;;;;;;;;;4.80;99.50;;;;;;5061601;28;20560;-69
2022/01/28 04:16:30;;;;;;;;;;;4.80;99.40;;;;;;5054563;28;19954;-69
2022/01/28 04:18:57;;;;;;;;;;;4.80;99.30;;;;;;5063730;28;19923;-69
2022/01/28 04:21:22;;;;;;;;;;;4.80;99.40;;;;;;5066827;28;19924;-69
2022/01/28 04:23:48;;;;;;;;;;;4.80;99.40;;;;;;5056288;28;19916;-69
2022/01/28 04:26:13;;;;;;;;;;;4.80;99.40;;;;;;5058565;28;19912;-69
2022/01/28 04:28:39;;;;;;;;;;;4.80;99.40;;;;;;5058081;28;19952;-69
2022/01/28 04:31:04;;;;;;;;;;;4.80;99.40;;;;;;5070211;28;20297;-69
2022/01/28 04:33:30;;;;;;;;;;;4.80;99.40;;;;;;5068486;28;20003;-69
2022/01/28 04:35:56;;;;;;;;;;;4.80;99.40;;;;;;5064037;28;19917;-69
2022/01/28 04:39:00;;;;;;;;;;;4.80;99.40;;;;;;5064779;28;19921;-69
2022/01/28 04:41:32;;;;;;;;;;;4.70;99.40;;;;;;5063217;28;19916;-69
2022/01/28 04:44:06;;;;;;;;;;;4.70;99.40;;;;;;5041064;28;19943;-69
2022/01/28 04:46:51;;;;;;;;;;;4.80;99.40;;;;;;5068810;28;20451;-69
2022/01/28 04:49:37;;;;;;;;;;;4.70;99.30;;;;;;5069934;28;20457;-69
2022/01/28 05:00:15;;;;;;;;;;;4.70;99.40;;;;;;5068644;28;19927;-69
2022/01/28 05:03:18;;;;;;;;;;;4.70;99.40;;;;;;5062425;28;19917;-69
2022/01/28 05:26:40;;;;;;;;;;;4.70;99.40;;;;;;5064342;28;19949;-69
2022/01/28 05:29:05;;;;;;;;;;;4.70;99.30;;;;;;5064895;28;19913;-69
2022/01/28 05:31:31;;;;;;;;;;;4.70;99.30;;;;;;5063847;28;19990;-69
2022/01/28 05:33:57;;;;;;;;;;;4.70;99.30;;;;;;5073906;28;20008;-69
2022/01/28 05:36:22;;;;;;;;;;;4.70;99.30;;;;;;5068224;28;19921;-69
2022/01/28 05:38:48;;;;;;;;;;;4.70;99.40;;;;;;5068017;28;19958;-69
2022/01/28 05:41:13;;;;;;;;;;;4.70;99.40;;;;;;5059060;28;19912;-69
2022/01/28 05:43:39;;;;;;;;;;;4.70;99.40;;;;;;5066012;28;20000;-69
2022/01/28 05:46:05;;;;;;;;;;;4.70;99.40;;;;;;5059916;28;19920;-69
2022/01/28 05:48:30;;;;;;;;;;;4.70;99.40;;;;;;5064814;28;19916;-69
2022/01/28 05:50:56;;;;;;;;;;;4.70;99.40;;;;;;5073625;28;20488;-69
2022/01/28 05:53:21;;;;;;;;;;;4.70;99.40;;;;;;5063442;28;19926;-69
2022/01/28 05:55:47;;;;;;;;;;;4.70;99.40;;;;;;5067813;28;19916;-69
2022/01/28 05:58:12;;;;;;;;;;;4.70;99.40;;;;;;5082300;28;19943;-69
2022/01/28 06:00:38;;;;;;;;;;;4.70;99.40;;;;;;5069935;28;20021;-69
2022/01/28 06:03:04;;;;;;;;;;;4.70;99.40;;;;;;5062733;28;19920;-69
2022/01/28 06:05:30;;;;;;;;;;;4.60;99.40;;;;;;5067353;28;19961;-69
2022/01/28 06:07:57;;;;;;;;;;;4.60;99.40;;;;;;5063657;28;19928;-69
2022/01/28 06:10:22;;;;;;;;;;;4.60;99.40;;;;;;5065563;28;20379;-69
2022/01/28 06:12:48;;;;;;;;;;;4.70;99.40;;;;;;5062691;28;19924;-69
2022/01/28 06:15:13;;;;;;;;;;;4.70;99.40;;;;;;5082343;28;19916;-69
2022/01/28 06:17:39;;;;;;;;;;;4.70;99.40;;;;;;5064835;28;19928;-69
2022/01/28 06:20:06;;;;;;;;;;;4.70;99.40;;;;;;5064232;28;19920;-69
2022/01/28 06:22:32;;;;;;;;;;;4.60;99.40;;;;;;5056672;28;19916;-69
2022/01/28 06:24:57;;;;;;;;;;;4.60;99.40;;;;;;5064400;28;19997;-69
2022/01/28 06:27:23;;;;;;;;;;;4.60;99.40;;;;;;5067742;28;20417;-69
2022/01/28 06:29:49;;;;;;;;;;;4.70;99.40;;;;;;5062350;28;19913;-69
2022/01/28 06:32:16;;;;;;;;;;;4.60;99.40;;;;;;5070476;28;19999;-69
2022/01/28 06:34:41;;;;;;;;;;;4.60;99.40;;;;;;5061516;28;19974;-69
2022/01/28 06:37:07;;;;;;;;;;;4.60;99.40;;;;;;5063397;28;19908;-69
2022/01/28 06:39:33;;;;;;;;;;;4.60;99.40;;;;;;5065999;28;19920;-69
2022/01/28 06:41:59;;;;;;;;;;;4.60;99.40;;;;;;5051251;28;19912;-69
2022/01/28 06:44:25;;;;;;;;;;;4.70;99.40;;;;;;5060652;28;19920;-69
2022/01/28 06:46:51;;;;;;;;;;;4.70;99.40;;;;;;5062258;28;20012;-69
2022/01/28 06:49:16;;;;;;;;;;;4.60;99.40;;;;;;5044940;28;20003;-69
2022/01/28 06:51:42;;;;;;;;;;;4.60;99.40;;;;;;5065827;28;19919;-69
2022/01/28 06:54:07;;;;;;;;;;;4.60;99.40;;;;;;5069096;28;19916;-69
2022/01/28 06:56:33;;;;;;;;;;;4.60;99.40;;;;;;5063665;28;19998;-69
2022/01/28 06:58:59;;;;;;;;;;;4.60;99.40;;;;;;5065562;28;19917;-69
2022/01/28 07:01:24;;;;;;;;;;;4.60;99.40;;;;;;5063809;28;20640;-69
2022/01/28 07:03:50;;;;;;;;;;;4.70;99.40;;;;;;5043157;28;19913;-69
2022/01/28 07:06:16;;;;;;;;;;;4.60;99.40;;;;;;5063687;28;20010;-69
2022/01/28 07:08:41;;;;;;;;;;;4.70;99.40;;;;;;5067701;28;19913;-69
2022/01/28 07:11:07;;;;;;;;;;;4.60;99.70;;;;;;5061618;28;20477;-69
2022/01/28 07:13:32;;;;;;;;;;;4.60;99.40;;;;;;5061327;28;20019;-69
2022/01/28 07:15:58;;;;;;;;;;;4.60;99.40;;;;;;5045568;28;20361;-69
2022/01/28 07:18:24;;;;;;;;;;;4.60;99.40;;;;;;5062447;28;20276;-69
2022/01/28 07:20:50;;;;;;;;;;;4.60;99.40;;;;;;5058528;28;19916;-69
2022/01/28 07:23:15;;;;;;;;;;;4.60;99.40;;;;;;5043480;28;19917;-69
2022/01/28 07:25:41;;;;;;;;;;;4.60;99.40;;;;;;5067999;28;19928;-69
2022/01/28 07:28:06;;;;;;;;;;;4.60;99.40;;;;;;5060906;28;19923;-69
2022/01/28 07:30:32;;;;;;;;;;;4.60;99.40;;;;;;5058574;28;19923;-69
2022/01/28 07:33:00;;;;;;;;;;;4.60;99.40;;;;;;5060332;28;19912;-69
2022/01/28 07:35:26;;;;;;;;;;;4.60;99.40;;;;;;5049286;28;19947;-69
2022/01/28 07:37:52;;;;;;;;;;;4.60;99.40;;;;;;5063380;28;19921;-69
2022/01/28 07:40:17;;;;;;;;;;;4.60;99.40;;;;;;5064267;28;19923;-69
2022/01/28 07:42:43;;;;;;;;;;;4.60;99.40;;;;;;5060774;28;19921;-69
2022/01/28 07:45:09;;;;;;;;;;;4.60;99.40;;;;;;5058044;28;19916;-69
2022/01/28 07:47:37;;;;;;;;;;;4.60;99.40;;;;;;5061487;28;19989;-69
2022/01/28 07:50:04;;;;;;;;;;;4.60;99.40;;;;;;5064306;28;19922;-69
2022/01/28 07:52:29;;;;;;;;;;;4.60;99.40;;;;;;5065455;28;19916;-69
2022/01/28 07:54:55;;;;;;;;;;;4.60;99.40;;;;;;5056710;28;19913;-69
2022/01/28 07:57:20;;;;;;;;;;;4.60;99.40;;;;;;5064554;28;20296;-69
2022/01/28 07:59:46;;;;;;;;;;;4.60;99.40;;;;;;5065910;28;19912;-69
2022/01/28 08:02:11;;;;;;;;;;;4.60;99.40;;;;;;5066028;28;19990;-69
2022/01/28 08:04:38;;;;;;;;;;;4.60;99.40;;;;;;5066481;28;19915;-69
2022/01/28 08:07:04;;;;;;;;;;;4.60;99.40;;;;;;5062247;28;19920;-69
2022/01/28 08:09:29;;;;;;;;;;;4.60;99.40;;;;;;5066285;28;20324;-69
2022/01/28 08:11:55;;;;;;;;;;;4.60;99.30;;;;;;5067190;28;19917;-69
2022/01/28 08:14:20;;;;;;;;;;;4.60;99.30;;;;;;5065804;28;19944;-69
2022/01/28 08:16:46;;;;;;;;;;;4.60;99.30;;;;;;5072346;28;20374;-69
2022/01/28 08:19:11;;;;;;;;;;;4.60;99.30;;;;;;5065284;28;19917;-69
2022/01/28 08:21:37;;;;;;;;;;;4.60;99.30;;;;;;5065353;28;19916;-69
2022/01/28 08:24:02;;;;;;;;;;;4.60;99.30;;;;;;5067962;28;19917;-69
2022/01/28 08:26:28;;;;;;;;;;;4.60;99.30;;;;;;5070036;28;20474;-69
2022/01/28 08:28:53;;;;;;;;;;;4.60;99.30;;;;;;5072099;28;20357;-69
2022/01/28 08:31:19;;;;;;;;;;;4.60;99.20;;;;;;5062014;28;19919;-69
2022/01/28 08:33:45;;;;;;;;;;;4.60;99.20;;;;;;5061589;28;20399;-69
2022/01/28 08:36:11;;;;;;;;;;;4.60;99.20;;;;;;5068234;28;19912;-69
2022/01/28 08:38:43;;;;;;;;;;;4.60;99.20;;;;;;5063274;28;19916;-69
2022/01/28 08:41:11;;;;;;;;;;;4.70;99.20;;;;;;5065346;28;19916;-69
2022/01/28 08:43:37;;;;;;;;;;;4.70;99.20;;;;;;5052464;28;20488;-69
2022/01/28 08:46:04;;;;;;;;;;;4.70;99.20;;;;;;5063865;28;19928;-69
2022/01/28 08:48:29;;;;;;;;;;;4.70;99.20;;;;;;5057137;28;20391;-69
2022/01/28 08:50:55;;;;;;;;;;;4.70;99.20;;;;;;5065562;28;19912;-69
2022/01/28 08:53:20;;;;;;;;;;;4.70;99.20;;;;;;5061607;28;19917;-69
2022/01/28 08:55:46;;;;;;;;;;;4.70;99.20;;;;;;5065115;28;19926;-69
2022/01/28 08:58:11;;;;;;;;;;;4.70;99.20;;;;;;5061199;28;20499;-69
2022/01/28 09:00:37;;;;;;;;;;;4.70;99.20;;;;;;5062517;28;19966;-69
2022/01/28 09:03:03;;;;;;;;;;;4.70;99.20;;;;;;5065313;28;19939;-69
2022/01/28 09:05:29;;;;;;;;;;;4.70;99.20;;;;;;5064920;28;20496;-69
2022/01/28 09:07:55;;;;;;;;;;;4.70;99.20;;;;;;5060014;28;20627;-69
2022/01/28 09:10:25;;;;;;;;;;;4.70;99.20;;;;;;5062280;28;19924;-69
2022/01/28 09:15:32;;;;;;;;;;;4.70;99.20;;;;;;5059430;28;19927;-69
2022/01/28 09:17:58;;;;;;;;;;;4.70;99.20;;;;;;5064436;28;19913;-69
2022/01/28 09:20:24;;;;;;;;;;;4.70;99.20;;;;;;5063072;28;19923;-69
2022/01/28 09:22:49;;;;;;;;;;;4.70;99.20;;;;;;5064389;28;19990;-69
2022/01/28 09:25:15;;;;;;;;;;;4.80;99.20;;;;;;5056694;28;19917;-69
2022/01/28 09:27:40;;;;;;;;;;;4.70;99.20;;;;;;5063053;28;20293;-69
2022/01/28 09:30:06;;;;;;;;;;;4.70;99.20;;;;;;5058199;28;19962;-69
2022/01/28 09:32:32;;;;;;;;;;;4.70;99.20;;;;;;5061354;28;20453;-69
2022/01/28 09:34:57;;;;;;;;;;;4.70;99.10;;;;;;5062665;28;19919;-69
2022/01/28 09:37:23;;;;;;;;;;;4.80;99.10;;;;;;5061976;28;20293;-69
2022/01/28 09:39:49;;;;;;;;;;;4.80;99.10;;;;;;5057168;28;19913;-69
2022/01/28 09:42:19;;;;;;;;;;;4.80;99.10;;;;;;5064211;28;20124;-69
2022/01/28 09:44:44;;;;;;;;;;;4.80;99.10;;;;;;5047851;28;19919;-69
2022/01/28 09:47:11;;;;;;;;;;;4.80;99.10;;;;;;5063925;28;19920;-69
2022/01/28 09:49:37;;;;;;;;;;;4.80;99.00;;;;;;5064823;28;20699;-69
2022/01/28 09:52:03;;;;;;;;;;;4.80;99.00;;;;;;5064105;28;19913;-69
2022/01/28 09:54:29;;;;;;;;;;;4.80;99.00;;;;;;5045408;28;19916;-69
2022/01/28 09:56:55;;;;;;;;;;;4.80;99.00;;;;;;5066714;28;19913;-69
2022/01/28 09:59:20;;;;;;;;;;;4.80;99.00;;;;;;5065446;28;19920;-69
2022/01/28 10:01:49;;;;;;;;;;;4.90;99.00;;;;;;5061249;28;19924;-69
2022/01/28 10:04:17;;;;;;;;;;;4.80;98.90;;;;;;5062179;28;20424;-69
2022/01/28 10:06:43;;;;;;;;;;;4.90;98.90;;;;;;5059571;28;19935;-69
2022/01/28 10:09:10;;;;;;;;;;;4.90;98.90;;;;;;5066063;28;19917;-69
2022/01/28 10:11:40;;;;;;;;;;;4.90;98.90;;;;;;5068236;28;19920;-69
2022/01/28 10:14:11;;;;;;;;;;;4.90;98.90;;;;;;5050718;28;20601;-69
2022/01/28 10:16:37;;;;;;;;;;;4.90;98.90;;;;;;5063041;28;20334;-69
2022/01/28 10:19:03;;;;;;;;;;;4.90;98.80;;;;;;5066163;28;20003;-69
2022/01/28 10:21:38;;;;;;;;;;;4.90;98.80;;;;;;5068332;28;20010;-69
2022/01/28 10:24:09;;;;;;;;;;;4.90;98.80;;;;;;5065690;28;19921;-69
2022/01/28 10:26:37;;;;;;;;;;;4.90;98.80;;;;;;5065600;28;20035;-69
2022/01/28 10:29:04;;;;;;;;;;;5.00;98.80;;;;;;5047489;28;19916;-69
2022/01/28 10:31:56;;;;;;;;;;;5.00;98.70;;;;;;5062044;28;20327;-69
2022/01/28 10:34:22;;;;;;;;;;;5.00;98.60;;;;;;5058344;28;19920;-69
2022/01/28 10:36:48;;;;;;;;;;;5.10;98.60;;;;;;5063047;28;19916;-69
2022/01/28 10:39:18;;;;;;;;;;;5.10;98.60;;;;;;5069008;28;19999;-69
2022/01/28 10:41:49;;;;;;;;;;;5.10;98.50;;;;;;5047419;28;19915;-69
2022/01/28 10:44:16;;;;;;;;;;;5.10;98.40;;;;;;5055675;28;19927;-69
2022/01/28 10:46:49;;;;;;;;;;;5.20;98.30;;;;;;5058523;28;19956;-69
2022/01/28 10:49:14;;;;;;;;;;;5.20;98.20;;;;;;5067604;28;19912;-69
2022/01/28 10:51:48;;;;;;;;;;;5.30;98.20;;;;;;5059751;28;19977;-69
2022/01/28 10:54:19;;;;;;;;;;;5.30;98.10;;;;;;5067974;28;19916;-69
2022/01/28 10:56:48;;;;;;;;;;;5.30;98.00;;;;;;5062155;28;19909;-69
2022/01/28 10:59:15;;;;;;;;;;;5.40;98.00;;;;;;5058731;28;20307;-69
2022/01/28 11:01:41;;;;;;;;;;;5.40;97.90;;;;;;5062081;28;19916;-69
2022/01/28 11:04:08;;;;;;;;;;;5.40;97.90;;;;;;5066858;28;20007;-69
2022/01/28 11:06:33;;;;;;;;;;;5.50;97.80;;;;;;5062205;28;19959;-69
2022/01/28 11:08:59;;;;;;;;;;;5.50;97.80;;;;;;5047721;28;20018;-69
2022/01/28 11:11:24;;;;;;;;;;;5.50;97.80;;;;;;5057008;28;19991;-69
2022/01/28 11:13:50;;;;;;;;;;;5.50;97.80;;;;;;5065800;28;19920;-69
2022/01/28 11:16:16;;;;;;;;;;;5.50;97.80;;;;;;5067453;28;19917;-69
2022/01/28 11:18:42;;;;;;;;;;;5.50;97.80;;;;;;5063552;28;20427;-69
2022/01/28 11:21:13;;;;;;;;;;;5.50;97.80;;;;;;5061458;28;19928;-69
2022/01/28 11:23:50;;;;;;;;;;;5.50;97.80;;;;;;5061648;28;19946;-69
2022/01/28 11:26:16;;;;;;;;;;;5.50;97.80;;;;;;5055231;28;19917;-69
2022/01/28 11:28:50;;;;;;;;;;;5.60;97.80;;;;;;5058807;28;19925;-69
2022/01/28 11:31:36;;;;;;;;;;;5.60;97.80;;;;;;5063543;28;20021;-69
2022/01/28 11:34:13;;;;;;;;;;;5.60;97.70;;;;;;5060580;28;19916;-69
2022/01/28 11:36:38;;;;;;;;;;;5.60;97.60;;;;;;5062253;28;19920;-71
2022/01/28 11:39:08;;;;;;;;;;;5.60;97.50;;;;;;5061019;28;19919;-71
2022/01/28 11:41:34;;;;;;;;;;;5.70;97.50;;;;;;5065633;28;19921;-71
2022/01/28 11:44:00;;;;;;;;;;;5.70;97.30;;;;;;5061144;28;20005;-72
2022/01/28 11:46:31;;;;;;;;;;;5.80;97.30;;;;;;5065485;28;19981;-71
2022/01/28 11:49:01;;;;;;;;;;;5.80;97.30;;;;;;5057399;28;20128;-71
2022/01/28 11:51:32;;;;;;;;;;;5.80;97.30;;;;;;5057246;28;19916;-71
2022/01/28 11:54:05;;;;;;;;;;;5.80;97.20;;;;;;5061793;28;19912;-71
2022/01/28 11:56:31;;;;;;;;;;;5.90;97.10;;;;;;5066646;28;19916;-71
2022/01/28 11:58:58;;;;;;;;;;;5.90;97.20;;;;;;5045139;28;20306;-71
2022/01/28 12:01:24;;;;;;;;;;;5.90;97.10;;;;;;5061631;28;20596;-71
2022/01/28 12:03:50;;;;;;;;;;;6.00;96.90;;;;;;5058792;28;20448;-71
2022/01/28 12:06:17;;;;;;;;;;;6.00;96.80;;;;;;5065873;28;20015;-69
2022/01/28 12:08:43;;;;;;;;;;;6.00;96.90;;;;;;5070621;28;19921;-69
2022/01/28 12:11:10;;;;;;;;;;;6.00;96.70;;;;;;5060219;28;19917;-69
2022/01/28 12:13:52;;;;;;;;;;;6.10;96.80;;;;;;5064252;28;20546;-69
2022/01/28 12:16:27;;;;;;;;;;;6.10;96.60;;;;;;5062744;28;19916;-69
2022/01/28 12:18:54;;;;;;;;;;;6.10;96.70;;;;;;5046779;28;20667;-69
2022/01/28 12:21:22;;;;;;;;;;;6.10;96.80;;;;;;5060574;28;19912;-69
2022/01/28 12:23:47;;;;;;;;;;;6.10;96.80;;;;;;5057953;28;19948;-69
2022/01/28 12:26:17;;;;;;;;;;;6.10;96.70;;;;;;5057729;28;19955;-69
2022/01/28 12:28:50;;;;;;;;;;;6.10;96.60;;;;;;5058384;28;19967;-70
2022/01/28 12:31:20;;;;;;;;;;;6.10;96.70;;;;;;5062518;28;19928;-69
2022/01/28 12:33:50;;;;;;;;;;;6.20;96.80;;;;;;5070766;28;19932;-69
2022/01/28 12:36:17;;;;;;;;;;;6.20;96.70;;;;;;5060965;28;19923;-69
2022/01/28 12:38:55;;;;;;;;;;;6.20;96.50;;;;;;5059696;28;19913;-69
2022/01/28 12:41:23;;;;;;;;;;;6.30;96.30;;;;;;5062717;28;19916;-69
2022/01/28 12:43:48;;;;;;;;;;;6.30;96.30;;;;;;5037020;28;19948;-69
2022/01/28 12:46:15;;;;;;;;;;;6.40;96.50;;;;;;5043690;28;19948;-69
2022/01/28 12:48:50;;;;;;;;;;;6.40;96.30;;;;;;5068333;28;19916;-69
2022/01/28 12:51:16;;;;;;;;;;;6.50;96.20;;;;;;5065630;28;19918;-69
2022/01/28 12:53:42;;;;;;;;;;;6.50;96.10;;;;;;5063794;28;19988;-69
2022/01/28 12:56:08;;;;;;;;;;;6.50;96.40;;;;;;5049481;28;19912;-69
2022/01/28 12:58:36;;;;;;;;;;;6.50;96.50;;;;;;5066742;28;19920;-70
2022/01/28 13:01:06;;;;;;;;;;;6.50;96.60;;;;;;5067919;28;19930;-69
2022/01/28 13:03:36;;;;;;;;;;;6.50;96.60;;;;;;5067993;28;19978;-69
2022/01/28 13:06:22;;;;;;;;;;;6.50;96.80;;;;;;5063000;28;19918;-69
2022/01/28 13:08:48;;;;;;;;;;;6.50;96.70;;;;;;5066102;28;19948;-69
2022/01/28 13:11:14;;;;;;;;;;;6.50;96.60;;;;;;5060970;28;20038;-69
2022/01/28 13:13:50;;;;;;;;;;;6.60;96.70;;;;;;5068081;28;19954;-69
2022/01/28 13:16:15;;;;;;;;;;;6.60;96.70;;;;;;5069763;28;19913;-69
2022/01/28 13:18:57;;;;;;;;;;;6.60;96.60;;;;;;5063602;28;20352;-70
2022/01/28 13:21:23;;;;;;;;;;;6.60;96.70;;;;;;5063793;28;19923;-69
2022/01/28 13:23:48;;;;;;;;;;;6.60;96.80;;;;;;5061715;28;19920;-69
2022/01/28 13:26:14;;;;;;;;;;;6.60;96.80;;;;;;5069026;28;20017;-69
2022/01/28 13:28:40;;;;;;;;;;;6.60;96.70;;;;;;5059452;28;20074;-69
2022/01/28 13:31:06;;;;;;;;;;;6.60;96.50;;;;;;5068158;28;20357;-69
2022/01/28 13:33:31;;;;;;;;;;;6.70;96.60;;;;;;5063275;28;19908;-69
2022/01/28 13:35:58;;;;;;;;;;;6.70;96.70;;;;;;5056697;28;19920;-69
2022/01/28 13:38:32;;;;;;;;;;;6.70;97.10;;;;;;5044864;28;19920;-69
2022/01/28 13:40:58;;;;;;;;;;;6.70;96.80;;;;;;5070375;28;19950;-69
2022/01/28 13:43:23;;;;;;;;;;;6.70;96.90;;;;;;5064758;28;19974;-69
2022/01/28 13:45:53;;;;;;;;;;;6.70;96.90;;;;;;5062217;28;20308;-69
2022/01/28 13:48:20;;;;;;;;;;;6.70;96.90;;;;;;5064524;28;19924;-69
2022/01/28 13:50:47;;;;;;;;;;;6.60;97.00;;;;;;5066421;28;19922;-69
2022/01/28 13:53:32;;;;;;;;;;;;;;;;;;;;;
2022/01/28 13:55:44;;;;;;;;;;;6.60;97.10;;;;;;5063548;28;19916;-69
2022/01/28 13:58:10;;;;;;;;;;;6.60;97.20;;;;;;5063602;28;20017;-70
2022/01/28 14:00:36;;;;;;;;;;;6.60;97.30;;;;;;5062217;28;19912;-69
2022/01/28 14:03:02;;;;;;;;;;;6.60;97.20;;;;;;5054673;28;19916;-69
2022/01/28 14:05:47;;;;;;;;;;;6.50;97.30;;;;;;5063751;28;19909;-69
2022/01/28 14:08:12;;;;;;;;;;;6.50;97.50;;;;;;5063307;28;19960;-69
2022/01/28 14:10:38;;;;;;;;;;;6.50;97.60;;;;;;5062938;28;19955;-69
2022/01/28 14:13:30;;;;;;;;;;;6.50;97.40;;;;;;5062714;28;19958;-69
2022/01/28 14:16:12;;;;;;;;;;;6.50;97.50;;;;;;5059935;28;19909;-69
2022/01/28 14:18:38;;;;;;;;;;;6.50;97.60;;;;;;5075720;28;20277;-69
2022/01/28 14:21:03;;;;;;;;;;;6.50;97.60;;;;;;5063147;28;19919;-69
2022/01/28 14:23:29;;;;;;;;;;;6.50;97.50;;;;;;5069270;28;19919;-69
2022/01/28 14:25:54;;;;;;;;;;;6.50;97.70;;;;;;5062756;28;19908;-70
2022/01/28 14:30:54;;;;;;;;;;;6.40;97.50;;;;;;5063465;28;20015;-69
2022/01/28 14:33:20;;;;;;;;;;;6.40;97.50;;;;;;5070267;28;20660;-69
2022/01/28 14:35:45;;;;;;;;;;;6.40;97.80;;;;;;5062969;28;19920;-70
2022/01/28 14:38:11;;;;;;;;;;;6.40;97.70;;;;;;5063086;28;19963;-69
2022/01/28 14:40:37;;;;;;;;;;;6.40;97.60;;;;;;5059691;28;20038;-69
2022/01/28 14:43:02;;;;;;;;;;;6.40;97.70;;;;;;5051358;28;19920;-69
2022/01/28 14:45:29;;;;;;;;;;;6.30;97.60;;;;;;5064059;28;19978;-69
2022/01/28 14:47:54;;;;;;;;;;;6.30;97.60;;;;;;5060802;28;19924;-69
2022/01/28 14:50:20;;;;;;;;;;;6.30;97.70;;;;;;5064354;28;19916;-69
2022/01/28 14:52:45;;;;;;;;;;;6.30;97.90;;;;;;5061369;28;19955;-69
2022/01/28 14:55:11;;;;;;;;;;;6.30;98.00;;;;;;5042375;28;20504;-70
2022/01/28 14:57:36;;;;;;;;;;;6.30;97.90;;;;;;5060953;28;19982;-70
2022/01/28 15:00:03;;;;;;;;;;;6.20;97.90;;;;;;5067214;28;20689;-70
2022/01/28 15:02:31;;;;;;;;;;;6.20;97.90;;;;;;5061683;28;19925;-70
2022/01/28 15:04:57;;;;;;;;;;;6.20;97.80;;;;;;5065123;28;19963;-70
2022/01/28 15:07:26;;;;;;;;;;;6.20;98.00;;;;;;5060716;28;19931;-70
2022/01/28 15:09:54;;;;;;;;;;;6.20;98.00;;;;;;5064715;28;19913;-70
2022/01/28 15:12:19;;;;;;;;;;;6.20;98.10;;;;;;5060796;28;19948;-70
2022/01/28 15:14:45;;;;;;;;;;;6.10;98.10;;;;;;5055638;28;20850;-70
2022/01/28 15:17:14;;;;;;;;;;;6.10;98.00;;;;;;5065088;28;19924;-70
2022/01/28 15:19:40;;;;;;;;;;;6.10;98.20;;;;;;5064448;28;19917;-70
2022/01/28 15:22:05;;;;;;;;;;;6.10;98.10;;;;;;5069616;28;19917;-70
2022/01/28 15:24:31;;;;;;;;;;;6.10;98.10;;;;;;5046378;28;19916;-70
2022/01/28 15:26:57;;;;;;;;;;;6.10;97.90;;;;;;5063308;28;19922;-70
2022/01/28 15:37:22;;;;;;;;;;;6.00;98.00;;;;;;5065206;28;19934;-70
2022/01/28 15:39:48;;;;;;;;;;;6.00;98.10;;;;;;5045508;28;20320;-70
2022/01/28 15:42:13;;;;;;;;;;;6.00;98.50;;;;;;5034408;28;19952;-70
2022/01/28 15:44:40;;;;;;;;;;;6.00;98.20;;;;;;5061005;28;19913;-70
2022/01/28 15:47:07;;;;;;;;;;;6.00;98.20;;;;;;5071018;28;19923;-70
2022/01/28 15:49:32;;;;;;;;;;;5.90;98.10;;;;;;5060929;28;19924;-69
2022/01/28 15:51:58;;;;;;;;;;;5.90;98.10;;;;;;5057098;28;19974;-70
2022/01/28 15:54:23;;;;;;;;;;;5.90;98.10;;;;;;5062319;28;20002;-70
2022/01/28 15:56:49;;;;;;;;;;;5.90;98.10;;;;;;5066451;28;19912;-70
2022/01/28 15:59:15;;;;;;;;;;;5.90;98.20;;;;;;5061504;28;19921;-70